Impacts METAR Board
IDs:

KSAT - San Antonio Intl, TX, US

Updated at: 2200 UTC 02 Oct 2022
Potential Impact None Slight Moderate High
Time 02/10Z 02/11Z 02/12Z 02/13Z 02/14Z 02/15Z 02/16Z 02/17Z 02/18Z 02/19Z 02/20Z 02/21Z 02/22Z
Temp59 59 58 59 63 72 75 79 81 82 82 83 83
Dewpt47 46 47 48 50 54 56 53 49 48 48 46 46
Altim30.09 30.10 30.12 30.14 30.17 30.18 30.19 30.18 30.16 30.14 30.11 30.10 30.10
VIS10 10 10 10 10 10 10 10 10 10 10 10 10
CIG-- 250 -- -- -- 250 -- 250 250 250 250 250 250
CoverSCTBKNSCTSCTSCTBKNSCTBKNBKNBKNBKNBKNBKN
FltCatVFRVFRVFRVFRVFRVFRVFRVFRVFRVFRVFRVFRVFR
WX--------------------------
WDir300300300300310012014090110140020
WSpd4 4 6 6 4 0 5 7 7 5 9 0 4
WGst-- -- -- -- -- -- -- 16 -- -- -- -- --
R04/22
XWnd 4 4 6 6 4 VRB -5 -7 -5 -5 -9 VRB 1
XGst -- -- -- -- -- -- -- -16 -- -- -- -- --
HWnd -1 -1 -1 -1 -0 VRB 1 -1 5 2 -1 VRB 4
HGst -- -- -- -- -- -- -- -3 -- -- -- -- --
R13/31
XWnd -1 -1 -1 -1 -0 VRB 1 -1 5 2 -1 VRB 4
XGst -- -- -- -- -- -- -- -2 -- -- -- -- --
HWnd -4 -4 -6 -6 -4 VRB 5 7 5 5 9 VRB -1
HGst -- -- -- -- -- -- -- 16 -- -- -- -- --
Raw hourly METARs
KSAT 020951Z 30004KT 10SM SCT250 15/08 A3009 RMK AO2 SLP171 T01500083
KSAT 021051Z 30004KT 10SM BKN250 15/08 A3010 RMK AO2 SLP177 T01500078
KSAT 021151Z 30006KT 10SM SCT250 14/08 A3012 RMK AO2 SLP185 T01440083 10200 20144 53012
KSAT 021251Z 30006KT 10SM FEW150 SCT250 15/09 A3014 RMK AO2 SLP192 T01500089
KSAT 021351Z 31004KT 10SM SCT250 17/10 A3017 RMK AO2 SLP200 T01720100
KSAT 021451Z 00000KT 10SM BKN250 22/12 A3018 RMK AO2 SLP203 T02220122 51018
KSAT 021551Z 12005KT 10SM SCT250 24/13 A3019 RMK AO2 SLP207 T02390133
KSAT 021651Z 14007G16KT 10SM BKN250 26/12 A3018 RMK AO2 SLP204 T02610117
KSAT 021751Z 09007KT 10SM BKN250 27/09 A3016 RMK AO2 SLP196 T02720094 10278 20144 58005
KSAT 021851Z 11005KT 10SM BKN250 28/09 A3014 RMK AO2 SLP188 T02780089
KSAT 021951Z 14009KT 10SM BKN250 28/09 A3011 RMK AO2 SLP181 T02780089
KSAT 022051Z 00000KT 10SM BKN250 28/08 A3010 RMK AO2 SLP176 T02830078 56021
KSAT 022151Z 02004KT 10SM BKN250 28/08 A3010 RMK AO2 SLP178 T02830078 $



Page loaded:  22:53 UTC  |   03:53 PM Pacific  |   04:53 PM Mountain  |   05:53 PM Central  |   06:53 PM Eastern

 

ADVISORIES

FORECASTS

FORECASTS

OBSERVATIONS

USER TOOLS

ABOUT US